KHWD/HWD METAR and TAF weather

Enter ICAO airport designator
Station Type Date Time Source
KHWD METAR 2019/04/18 14:54 UTC NOAA

KHWD 181454Z 00000KT 10SM CLR 13/08 A3015 RMK AO2 SLP219 T01330083 53002


Station Type Date Time Source
KHWD Decoded METAR 2019/04/18 14:54 UTC NOAA

HAYWARD AIR TERMINAL, CA, United States (KHWD) 37-40N 122-07W 21M
Apr 18, 2019 - 10:54 AM EDT / 2019.04.18 1454 UTC
Wind: Calm:0
Visibility: 10 mile(s):0
Sky conditions: clear
Temperature: 55.9 F (13.3 C)
Dew Point: 46.9 F (8.3 C)
Relative Humidity: 71%
Pressure (altimeter): 30.15 in. Hg (1020 hPa)
Pressure tendency: 0.01 inches (0.2 hPa) higher than three hours ago
ob: KHWD 181454Z 00000KT 10SM CLR 13/08 A3015 RMK AO2 SLP219 T01330083 53002
cycle: 15

Station Type Date Time Source
KHWD TAF UTC NOAA

Error!

Example: see airport list